Omaha, Nebraska
Current Conditions -  °F | °C
As of 4:52 AM on Thursday 18 Dec 2014 (Local Time) from KOMA Reporting Station
Overcast Overcast  
Wind Chill: 20°   Ceiling: 6000
Heat Index: 27°   Visibility: 10mi
Dew Point: 20°   Wind: 6mph
Humidity: 75%   Direction: 120°ESE
Pressure: 30.24"   Gusts: NA
Location:  41.26°N, 95.94°W
Report Text: KOMA 181052Z 12005KT 10SM OVC060 M03/M07 A3024 RMK AO2 SLP252 T10281067
Loading
Personal Weather Stations






























Interactive Weather Map New forecast layout! Learn more

10-Day Weather Forecast

Advertisements
Track Severe Weather on mobile